sensor_id;sensor_type;location;lat;lon;timestamp;temperature;humidity
30280;DHT22;17097;50.916;5.344;2023-12-14T00:01:24;10.30;99.90
30280;DHT22;17097;50.916;5.344;2023-12-14T00:03:50;10.30;99.90
30280;DHT22;17097;50.916;5.344;2023-12-14T00:06:16;10.20;99.90
30280;DHT22;17097;50.916;5.344;2023-12-14T00:08:41;10.30;99.90
30280;DHT22;17097;50.916;5.344;2023-12-14T00:11:08;10.30;99.90
30280;DHT22;17097;50.916;5.344;2023-12-14T00:13:34;10.30;99.90
30280;DHT22;17097;50.916;5.344;2023-12-14T00:16:02;10.30;99.90
30280;DHT22;17097;50.916;5.344;2023-12-14T00:18:27;10.20;99.90
30280;DHT22;17097;50.916;5.344;2023-12-14T00:20:53;10.30;99.90
30280;DHT22;17097;50.916;5.344;2023-12-14T00:23:20;10.40;99.90
30280;DHT22;17097;50.916;5.344;2023-12-14T00:25:46;10.30;99.90
30280;DHT22;17097;50.916;5.344;2023-12-14T00:28:17;10.30;99.90
30280;DHT22;17097;50.916;5.344;2023-12-14T00:30:43;10.30;99.90
30280;DHT22;17097;50.916;5.344;2023-12-14T00:33:11;10.30;99.90
30280;DHT22;17097;50.916;5.344;2023-12-14T00:35:39;10.30;99.90
30280;DHT22;17097;50.916;5.344;2023-12-14T00:38:04;10.40;99.90
30280;DHT22;17097;50.916;5.344;2023-12-14T00:40:30;10.40;99.90
30280;DHT22;17097;50.916;5.344;2023-12-14T00:42:56;10.40;99.90
30280;DHT22;17097;50.916;5.344;2023-12-14T00:45:21;10.40;99.90
30280;DHT22;17097;50.916;5.344;2023-12-14T00:47:49;10.40;99.90
30280;DHT22;17097;50.916;5.344;2023-12-14T00:50:17;10.50;99.90
30280;DHT22;17097;50.916;5.344;2023-12-14T00:52:43;10.60;99.90
30280;DHT22;17097;50.916;5.344;2023-12-14T00:55:08;10.60;99.90
30280;DHT22;17097;50.916;5.344;2023-12-14T00:57:36;10.50;99.90
30280;DHT22;17097;50.916;5.344;2023-12-14T01:00:02;10.60;99.90
30280;DHT22;17097;50.916;5.344;2023-12-14T01:02:30;10.50;99.90
30280;DHT22;17097;50.916;5.344;2023-12-14T01:04:56;10.50;99.90
30280;DHT22;17097;50.916;5.344;2023-12-14T01:07:24;10.50;99.90
30280;DHT22;17097;50.916;5.344;2023-12-14T01:09:52;10.60;99.90
30280;DHT22;17097;50.916;5.344;2023-12-14T01:12:17;10.50;99.90
30280;DHT22;17097;50.916;5.344;2023-12-14T01:14:43;10.70;99.90
30280;DHT22;17097;50.916;5.344;2023-12-14T01:17:08;10.70;99.90
30280;DHT22;17097;50.916;5.344;2023-12-14T01:19:34;10.60;99.90
30280;DHT22;17097;50.916;5.344;2023-12-14T01:22:00;10.70;99.90
30280;DHT22;17097;50.916;5.344;2023-12-14T01:24:27;10.80;99.90
30280;DHT22;17097;50.916;5.344;2023-12-14T01:26:55;10.80;99.90
30280;DHT22;17097;50.916;5.344;2023-12-14T01:29:21;10.50;99.90
30280;DHT22;17097;50.916;5.344;2023-12-14T01:31:49;10.40;99.90
30280;DHT22;17097;50.916;5.344;2023-12-14T01:34:17;10.40;99.90
30280;DHT22;17097;50.916;5.344;2023-12-14T01:36:42;10.50;99.90
30280;DHT22;17097;50.916;5.344;2023-12-14T01:39:08;10.40;99.90
30280;DHT22;17097;50.916;5.344;2023-12-14T01:41:34;10.40;99.90
30280;DHT22;17097;50.916;5.344;2023-12-14T01:43:59;10.40;99.90
30280;DHT22;17097;50.916;5.344;2023-12-14T01:46:25;10.30;99.90
30280;DHT22;17097;50.916;5.344;2023-12-14T01:48:53;10.30;99.90
30280;DHT22;17097;50.916;5.344;2023-12-14T01:51:18;10.40;99.90
30280;DHT22;17097;50.916;5.344;2023-12-14T01:53:46;10.40;99.90
30280;DHT22;17097;50.916;5.344;2023-12-14T01:56:12;10.40;99.90
30280;DHT22;17097;50.916;5.344;2023-12-14T01:58:40;10.30;99.90
30280;DHT22;17097;50.916;5.344;2023-12-14T02:01:36;10.40;99.90
30280;DHT22;17097;50.916;5.344;2023-12-14T02:04:05;10.40;99.90
30280;DHT22;17097;50.916;5.344;2023-12-14T02:06:34;10.50;99.90
30280;DHT22;17097;50.916;5.344;2023-12-14T02:08:59;10.40;99.90
30280;DHT22;17097;50.916;5.344;2023-12-14T02:11:27;10.40;99.90
30280;DHT22;17097;50.916;5.344;2023-12-14T02:13:53;10.40;99.90
30280;DHT22;17097;50.916;5.344;2023-12-14T02:16:21;10.40;99.90
30280;DHT22;17097;50.916;5.344;2023-12-14T02:18:46;10.20;99.90
30280;DHT22;17097;50.916;5.344;2023-12-14T02:21:12;10.40;99.90
30280;DHT22;17097;50.916;5.344;2023-12-14T02:23:46;10.40;99.90
30280;DHT22;17097;50.916;5.344;2023-12-14T02:26:13;10.30;99.90
30280;DHT22;17097;50.916;5.344;2023-12-14T02:28:39;10.30;99.90
30280;DHT22;17097;50.916;5.344;2023-12-14T02:31:05;10.10;99.90
30280;DHT22;17097;50.916;5.344;2023-12-14T02:33:30;9.90;99.90
30280;DHT22;17097;50.916;5.344;2023-12-14T02:35:56;9.90;99.90
30280;DHT22;17097;50.916;5.344;2023-12-14T02:38:24;10.00;99.90
30280;DHT22;17097;50.916;5.344;2023-12-14T02:40:52;10.00;99.90
30280;DHT22;17097;50.916;5.344;2023-12-14T02:43:20;10.00;99.90
30280;DHT22;17097;50.916;5.344;2023-12-14T02:45:46;10.00;99.90
30280;DHT22;17097;50.916;5.344;2023-12-14T02:48:12;10.00;99.90
30280;DHT22;17097;50.916;5.344;2023-12-14T02:50:38;10.10;99.90
30280;DHT22;17097;50.916;5.344;2023-12-14T02:53:06;9.80;99.90
30280;DHT22;17097;50.916;5.344;2023-12-14T02:55:31;9.60;99.90
30280;DHT22;17097;50.916;5.344;2023-12-14T02:57:59;9.60;99.90
30280;DHT22;17097;50.916;5.344;2023-12-14T03:00:25;9.50;99.90
30280;DHT22;17097;50.916;5.344;2023-12-14T03:02:51;9.50;99.90
30280;DHT22;17097;50.916;5.344;2023-12-14T03:05:16;9.30;99.90
30280;DHT22;17097;50.916;5.344;2023-12-14T03:07:42;9.40;99.90
30280;DHT22;17097;50.916;5.344;2023-12-14T03:10:08;9.20;99.90
30280;DHT22;17097;50.916;5.344;2023-12-14T03:12:36;9.30;99.90
30280;DHT22;17097;50.916;5.344;2023-12-14T03:15:04;9.40;99.90
30280;DHT22;17097;50.916;5.344;2023-12-14T03:17:32;9.30;99.90
30280;DHT22;17097;50.916;5.344;2023-12-14T03:19:58;9.40;99.90
30280;DHT22;17097;50.916;5.344;2023-12-14T03:22:24;9.70;99.90
30280;DHT22;17097;50.916;5.344;2023-12-14T03:24:49;9.60;99.90
30280;DHT22;17097;50.916;5.344;2023-12-14T03:27:17;9.50;99.90
30280;DHT22;17097;50.916;5.344;2023-12-14T03:29:43;9.60;99.90
30280;DHT22;17097;50.916;5.344;2023-12-14T03:32:09;9.50;99.90
30280;DHT22;17097;50.916;5.344;2023-12-14T03:34:36;9.50;99.90
30280;DHT22;17097;50.916;5.344;2023-12-14T03:37:02;9.40;99.90
30280;DHT22;17097;50.916;5.344;2023-12-14T03:39:28;9.40;99.90
30280;DHT22;17097;50.916;5.344;2023-12-14T03:41:53;9.20;99.90
30280;DHT22;17097;50.916;5.344;2023-12-14T03:44:19;9.20;99.90
30280;DHT22;17097;50.916;5.344;2023-12-14T03:46:49;9.30;99.90
30280;DHT22;17097;50.916;5.344;2023-12-14T03:49:19;9.20;99.90
30280;DHT22;17097;50.916;5.344;2023-12-14T03:51:45;9.40;99.90
30280;DHT22;17097;50.916;5.344;2023-12-14T03:54:10;9.50;99.90
30280;DHT22;17097;50.916;5.344;2023-12-14T03:56:40;9.50;99.90
30280;DHT22;17097;50.916;5.344;2023-12-14T03:59:06;9.30;99.90
30280;DHT22;17097;50.916;5.344;2023-12-14T04:01:32;9.20;99.90
30280;DHT22;17097;50.916;5.344;2023-12-14T04:03:58;9.10;99.90
30280;DHT22;17097;50.916;5.344;2023-12-14T04:06:24;8.90;99.90
30280;DHT22;17097;50.916;5.344;2023-12-14T04:08:50;9.00;99.90
30280;DHT22;17097;50.916;5.344;2023-12-14T04:11:15;9.00;99.90
30280;DHT22;17097;50.916;5.344;2023-12-14T04:13:43;8.80;99.90
30280;DHT22;17097;50.916;5.344;2023-12-14T04:16:09;9.00;99.90
30280;DHT22;17097;50.916;5.344;2023-12-14T04:18:37;9.00;99.90
30280;DHT22;17097;50.916;5.344;2023-12-14T04:21:05;8.70;99.90
30280;DHT22;17097;50.916;5.344;2023-12-14T04:23:31;8.80;99.90
30280;DHT22;17097;50.916;5.344;2023-12-14T04:25:57;8.90;99.90
30280;DHT22;17097;50.916;5.344;2023-12-14T04:28:23;8.90;99.90
30280;DHT22;17097;50.916;5.344;2023-12-14T04:30:48;9.00;99.90
30280;DHT22;17097;50.916;5.344;2023-12-14T04:33:14;9.00;99.90
30280;DHT22;17097;50.916;5.344;2023-12-14T04:35:40;9.10;99.90
30280;DHT22;17097;50.916;5.344;2023-12-14T04:38:08;8.80;99.90
30280;DHT22;17097;50.916;5.344;2023-12-14T04:40:33;8.60;99.90
30280;DHT22;17097;50.916;5.344;2023-12-14T04:42:59;8.40;99.90
30280;DHT22;17097;50.916;5.344;2023-12-14T04:45:25;8.40;99.90
30280;DHT22;17097;50.916;5.344;2023-12-14T04:47:50;8.30;99.90
30280;DHT22;17097;50.916;5.344;2023-12-14T04:50:16;8.20;99.90
30280;DHT22;17097;50.916;5.344;2023-12-14T04:52:42;8.40;99.90
30280;DHT22;17097;50.916;5.344;2023-12-14T04:55:10;8.50;99.90
30280;DHT22;17097;50.916;5.344;2023-12-14T04:57:36;8.30;99.90
30280;DHT22;17097;50.916;5.344;2023-12-14T05:00:09;8.20;99.90
30280;DHT22;17097;50.916;5.344;2023-12-14T05:02:35;8.30;99.90
30280;DHT22;17097;50.916;5.344;2023-12-14T05:05:01;8.20;99.90
30280;DHT22;17097;50.916;5.344;2023-12-14T05:07:27;8.20;99.90
30280;DHT22;17097;50.916;5.344;2023-12-14T05:09:53;8.30;99.90
30280;DHT22;17097;50.916;5.344;2023-12-14T05:12:19;8.50;99.90
30280;DHT22;17097;50.916;5.344;2023-12-14T05:14:44;8.50;99.90
30280;DHT22;17097;50.916;5.344;2023-12-14T05:17:10;8.40;99.90
30280;DHT22;17097;50.916;5.344;2023-12-14T05:19:38;8.30;99.90
30280;DHT22;17097;50.916;5.344;2023-12-14T05:22:04;8.20;99.90
30280;DHT22;17097;50.916;5.344;2023-12-14T05:24:29;8.10;99.90
30280;DHT22;17097;50.916;5.344;2023-12-14T05:26:55;8.30;99.90
30280;DHT22;17097;50.916;5.344;2023-12-14T05:29:21;8.20;99.90
30280;DHT22;17097;50.916;5.344;2023-12-14T05:31:47;8.20;99.90
30280;DHT22;17097;50.916;5.344;2023-12-14T05:34:12;8.20;99.90
30280;DHT22;17097;50.916;5.344;2023-12-14T05:36:38;8.20;99.90
30280;DHT22;17097;50.916;5.344;2023-12-14T05:39:04;8.10;99.90
30280;DHT22;17097;50.916;5.344;2023-12-14T05:41:30;8.20;99.90
30280;DHT22;17097;50.916;5.344;2023-12-14T05:43:55;8.10;99.90
30280;DHT22;17097;50.916;5.344;2023-12-14T05:46:24;8.30;99.90
30280;DHT22;17097;50.916;5.344;2023-12-14T05:48:50;8.10;99.90
30280;DHT22;17097;50.916;5.344;2023-12-14T05:51:31;8.00;99.90
30280;DHT22;17097;50.916;5.344;2023-12-14T05:53:59;8.20;99.90
30280;DHT22;17097;50.916;5.344;2023-12-14T05:56:26;8.30;99.90
30280;DHT22;17097;50.916;5.344;2023-12-14T05:58:51;8.30;99.90
30280;DHT22;17097;50.916;5.344;2023-12-14T06:01:18;8.50;99.90
30280;DHT22;17097;50.916;5.344;2023-12-14T06:03:44;8.20;99.90
30280;DHT22;17097;50.916;5.344;2023-12-14T06:06:10;8.20;99.90
30280;DHT22;17097;50.916;5.344;2023-12-14T06:08:39;8.20;99.90
30280;DHT22;17097;50.916;5.344;2023-12-14T06:11:04;8.30;99.90
30280;DHT22;17097;50.916;5.344;2023-12-14T06:13:33;8.50;99.90
30280;DHT22;17097;50.916;5.344;2023-12-14T06:16:01;8.40;99.90
30280;DHT22;17097;50.916;5.344;2023-12-14T06:18:33;8.20;99.90
30280;DHT22;17097;50.916;5.344;2023-12-14T06:20:58;8.10;99.90
30280;DHT22;17097;50.916;5.344;2023-12-14T06:23:29;8.00;99.90
30280;DHT22;17097;50.916;5.344;2023-12-14T06:25:57;8.20;99.90
30280;DHT22;17097;50.916;5.344;2023-12-14T06:28:23;8.20;99.90
30280;DHT22;17097;50.916;5.344;2023-12-14T06:30:49;8.00;99.90
30280;DHT22;17097;50.916;5.344;2023-12-14T06:33:14;8.00;99.90
30280;DHT22;17097;50.916;5.344;2023-12-14T06:35:43;8.00;99.90
30280;DHT22;17097;50.916;5.344;2023-12-14T06:38:09;7.90;99.90
30280;DHT22;17097;50.916;5.344;2023-12-14T06:40:35;7.90;99.90
30280;DHT22;17097;50.916;5.344;2023-12-14T06:43:04;7.90;99.90
30280;DHT22;17097;50.916;5.344;2023-12-14T06:45:30;7.80;99.90
30280;DHT22;17097;50.916;5.344;2023-12-14T06:47:56;8.00;99.90
30280;DHT22;17097;50.916;5.344;2023-12-14T06:50:21;7.70;99.90
30280;DHT22;17097;50.916;5.344;2023-12-14T06:52:47;7.70;99.90
30280;DHT22;17097;50.916;5.344;2023-12-14T06:55:15;7.80;99.90
30280;DHT22;17097;50.916;5.344;2023-12-14T06:57:43;7.80;99.90
30280;DHT22;17097;50.916;5.344;2023-12-14T07:00:15;7.90;99.90
30280;DHT22;17097;50.916;5.344;2023-12-14T07:02:40;7.90;99.90
30280;DHT22;17097;50.916;5.344;2023-12-14T07:05:06;8.10;99.90
30280;DHT22;17097;50.916;5.344;2023-12-14T07:07:34;8.10;99.90
30280;DHT22;17097;50.916;5.344;2023-12-14T07:10:02;8.00;99.90
30280;DHT22;17097;50.916;5.344;2023-12-14T07:12:28;8.00;99.90
30280;DHT22;17097;50.916;5.344;2023-12-14T07:14:53;8.10;99.90
30280;DHT22;17097;50.916;5.344;2023-12-14T07:17:24;8.00;99.90
30280;DHT22;17097;50.916;5.344;2023-12-14T07:19:52;8.00;99.90
30280;DHT22;17097;50.916;5.344;2023-12-14T07:22:19;7.90;99.90
30280;DHT22;17097;50.916;5.344;2023-12-14T07:24:45;7.80;99.90
30280;DHT22;17097;50.916;5.344;2023-12-14T07:27:11;7.80;99.90
30280;DHT22;17097;50.916;5.344;2023-12-14T07:29:36;7.80;99.90
30280;DHT22;17097;50.916;5.344;2023-12-14T07:32:04;7.90;99.90
30280;DHT22;17097;50.916;5.344;2023-12-14T07:34:30;7.80;99.90
30280;DHT22;17097;50.916;5.344;2023-12-14T07:36:58;7.80;99.90
30280;DHT22;17097;50.916;5.344;2023-12-14T07:39:24;7.90;99.90
30280;DHT22;17097;50.916;5.344;2023-12-14T07:41:49;8.10;99.90
30280;DHT22;17097;50.916;5.344;2023-12-14T07:44:15;8.00;99.90
30280;DHT22;17097;50.916;5.344;2023-12-14T07:46:40;8.20;99.90
30280;DHT22;17097;50.916;5.344;2023-12-14T07:49:08;8.20;99.90
30280;DHT22;17097;50.916;5.344;2023-12-14T07:51:34;8.10;99.90
30280;DHT22;17097;50.916;5.344;2023-12-14T07:53:59;8.20;99.90
30280;DHT22;17097;50.916;5.344;2023-12-14T07:56:25;8.20;99.90
30280;DHT22;17097;50.916;5.344;2023-12-14T07:58:55;8.40;99.90
30280;DHT22;17097;50.916;5.344;2023-12-14T08:01:23;8.20;99.90
30280;DHT22;17097;50.916;5.344;2023-12-14T08:03:49;8.20;99.90
30280;DHT22;17097;50.916;5.344;2023-12-14T08:06:14;8.20;99.90
30280;DHT22;17097;50.916;5.344;2023-12-14T08:08:40;8.20;99.90
30280;DHT22;17097;50.916;5.344;2023-12-14T08:11:05;8.20;99.90
30280;DHT22;17097;50.916;5.344;2023-12-14T08:13:36;8.30;99.90
30280;DHT22;17097;50.916;5.344;2023-12-14T08:16:04;8.20;99.90
30280;DHT22;17097;50.916;5.344;2023-12-14T08:18:30;8.10;99.90
30280;DHT22;17097;50.916;5.344;2023-12-14T08:20:58;8.30;99.90
30280;DHT22;17097;50.916;5.344;2023-12-14T08:23:24;8.40;99.90
30280;DHT22;17097;50.916;5.344;2023-12-14T08:25:53;8.40;99.90
30280;DHT22;17097;50.916;5.344;2023-12-14T08:28:23;8.20;99.90
30280;DHT22;17097;50.916;5.344;2023-12-14T08:30:52;8.10;99.90
30280;DHT22;17097;50.916;5.344;2023-12-14T08:33:17;8.00;99.90
30280;DHT22;17097;50.916;5.344;2023-12-14T08:35:43;8.00;99.90
30280;DHT22;17097;50.916;5.344;2023-12-14T08:38:09;7.90;99.90
30280;DHT22;17097;50.916;5.344;2023-12-14T08:40:37;7.90;99.90
30280;DHT22;17097;50.916;5.344;2023-12-14T08:43:05;8.00;99.90
30280;DHT22;17097;50.916;5.344;2023-12-14T08:45:31;8.10;99.90
30280;DHT22;17097;50.916;5.344;2023-12-14T08:47:56;8.10;99.90
30280;DHT22;17097;50.916;5.344;2023-12-14T08:50:22;8.20;99.90
30280;DHT22;17097;50.916;5.344;2023-12-14T08:52:48;8.30;99.90
30280;DHT22;17097;50.916;5.344;2023-12-14T08:55:14;8.30;99.90
30280;DHT22;17097;50.916;5.344;2023-12-14T08:57:39;8.30;99.90
30280;DHT22;17097;50.916;5.344;2023-12-14T09:00:06;8.30;99.90
30280;DHT22;17097;50.916;5.344;2023-12-14T09:02:32;8.10;99.90
30280;DHT22;17097;50.916;5.344;2023-12-14T09:05:00;8.20;99.90
30280;DHT22;17097;50.916;5.344;2023-12-14T09:07:29;8.30;99.90
30280;DHT22;17097;50.916;5.344;2023-12-14T09:09:54;8.20;99.90
30280;DHT22;17097;50.916;5.344;2023-12-14T09:12:22;8.20;99.90
30280;DHT22;17097;50.916;5.344;2023-12-14T09:14:48;8.20;99.90
30280;DHT22;17097;50.916;5.344;2023-12-14T09:17:16;8.20;99.90
30280;DHT22;17097;50.916;5.344;2023-12-14T09:19:42;8.20;99.90
30280;DHT22;17097;50.916;5.344;2023-12-14T09:22:07;8.30;99.90
30280;DHT22;17097;50.916;5.344;2023-12-14T09:24:33;8.20;99.90
30280;DHT22;17097;50.916;5.344;2023-12-14T09:26:59;8.50;99.90
30280;DHT22;17097;50.916;5.344;2023-12-14T09:29:27;8.50;99.90
30280;DHT22;17097;50.916;5.344;2023-12-14T09:31:53;8.50;99.90
30280;DHT22;17097;50.916;5.344;2023-12-14T09:34:19;8.60;99.90
30280;DHT22;17097;50.916;5.344;2023-12-14T09:36:45;8.60;99.90
30280;DHT22;17097;50.916;5.344;2023-12-14T09:39:11;8.50;99.90
30280;DHT22;17097;50.916;5.344;2023-12-14T09:41:39;8.40;99.90
30280;DHT22;17097;50.916;5.344;2023-12-14T09:44:06;8.60;99.90
30280;DHT22;17097;50.916;5.344;2023-12-14T09:46:34;8.60;99.90
30280;DHT22;17097;50.916;5.344;2023-12-14T09:49:02;8.50;99.90
30280;DHT22;17097;50.916;5.344;2023-12-14T09:51:30;8.50;99.90
30280;DHT22;17097;50.916;5.344;2023-12-14T09:53:58;8.40;99.90
30280;DHT22;17097;50.916;5.344;2023-12-14T09:56:25;8.50;99.90
30280;DHT22;17097;50.916;5.344;2023-12-14T09:58:51;8.50;99.90
30280;DHT22;17097;50.916;5.344;2023-12-14T10:01:27;8.60;99.90
30280;DHT22;17097;50.916;5.344;2023-12-14T10:04:13;8.70;99.90
30280;DHT22;17097;50.916;5.344;2023-12-14T10:06:42;8.60;99.90
30280;DHT22;17097;50.916;5.344;2023-12-14T10:09:09;8.60;99.90
30280;DHT22;17097;50.916;5.344;2023-12-14T10:11:36;8.80;99.90
30280;DHT22;17097;50.916;5.344;2023-12-14T10:14:02;8.70;99.90
30280;DHT22;17097;50.916;5.344;2023-12-14T10:16:33;8.60;99.90
30280;DHT22;17097;50.916;5.344;2023-12-14T10:18:59;8.60;99.90
30280;DHT22;17097;50.916;5.344;2023-12-14T10:21:28;8.50;99.90
30280;DHT22;17097;50.916;5.344;2023-12-14T10:23:57;8.40;99.90
30280;DHT22;17097;50.916;5.344;2023-12-14T10:26:26;8.50;99.90
30280;DHT22;17097;50.916;5.344;2023-12-14T10:28:54;8.60;99.90
30280;DHT22;17097;50.916;5.344;2023-12-14T10:31:22;8.70;99.90
30280;DHT22;17097;50.916;5.344;2023-12-14T10:33:49;8.50;99.90
30280;DHT22;17097;50.916;5.344;2023-12-14T10:36:18;8.30;99.90
30280;DHT22;17097;50.916;5.344;2023-12-14T10:38:52;8.30;99.90
30280;DHT22;17097;50.916;5.344;2023-12-14T10:41:18;8.40;99.90
30280;DHT22;17097;50.916;5.344;2023-12-14T10:43:48;8.40;99.90
30280;DHT22;17097;50.916;5.344;2023-12-14T10:46:16;8.50;99.90
30280;DHT22;17097;50.916;5.344;2023-12-14T10:48:46;8.40;99.90
30280;DHT22;17097;50.916;5.344;2023-12-14T10:51:13;8.40;99.90
30280;DHT22;17097;50.916;5.344;2023-12-14T10:53:40;8.50;99.90
30280;DHT22;17097;50.916;5.344;2023-12-14T10:56:10;8.60;99.90
30280;DHT22;17097;50.916;5.344;2023-12-14T11:01:18;9.00;99.90
30280;DHT22;17097;50.916;5.344;2023-12-14T11:03:49;9.20;99.90
30280;DHT22;17097;50.916;5.344;2023-12-14T11:08:48;9.60;99.90
30280;DHT22;17097;50.916;5.344;2023-12-14T11:11:18;9.90;99.90
30280;DHT22;17097;50.916;5.344;2023-12-14T11:13:52;10.00;99.90
30280;DHT22;17097;50.916;5.344;2023-12-14T11:16:20;9.80;99.90
30280;DHT22;17097;50.916;5.344;2023-12-14T11:18:47;9.80;99.90
30280;DHT22;17097;50.916;5.344;2023-12-14T11:21:18;9.90;99.90
30280;DHT22;17097;50.916;5.344;2023-12-14T11:23:50;9.90;99.90
30280;DHT22;17097;50.916;5.344;2023-12-14T11:26:21;10.00;99.90
30280;DHT22;17097;50.916;5.344;2023-12-14T11:28:52;10.10;99.90
30280;DHT22;17097;50.916;5.344;2023-12-14T11:31:18;10.20;99.90
30280;DHT22;17097;50.916;5.344;2023-12-14T11:33:46;9.80;99.90
30280;DHT22;17097;50.916;5.344;2023-12-14T11:36:13;9.90;99.90
30280;DHT22;17097;50.916;5.344;2023-12-14T11:38:43;9.90;99.90
30280;DHT22;17097;50.916;5.344;2023-12-14T11:41:09;10.00;99.90
30280;DHT22;17097;50.916;5.344;2023-12-14T11:43:42;9.70;99.90
30280;DHT22;17097;50.916;5.344;2023-12-14T11:46:11;9.60;99.90
30280;DHT22;17097;50.916;5.344;2023-12-14T11:48:37;9.50;99.90
30280;DHT22;17097;50.916;5.344;2023-12-14T11:51:03;9.50;99.90
30280;DHT22;17097;50.916;5.344;2023-12-14T11:53:31;9.30;99.90
30280;DHT22;17097;50.916;5.344;2023-12-14T11:55:59;9.40;99.90
30280;DHT22;17097;50.916;5.344;2023-12-14T11:58:28;9.50;99.90
30280;DHT22;17097;50.916;5.344;2023-12-14T12:00:53;9.40;99.90
30280;DHT22;17097;50.916;5.344;2023-12-14T12:03:20;9.40;99.90
30280;DHT22;17097;50.916;5.344;2023-12-14T12:05:51;9.40;99.90
30280;DHT22;17097;50.916;5.344;2023-12-14T12:08:19;9.40;99.90
30280;DHT22;17097;50.916;5.344;2023-12-14T12:10:46;9.40;99.90
30280;DHT22;17097;50.916;5.344;2023-12-14T12:15:42;9.10;99.90
30280;DHT22;17097;50.916;5.344;2023-12-14T12:18:10;8.90;99.90
30280;DHT22;17097;50.916;5.344;2023-12-14T12:20:36;8.80;99.90
30280;DHT22;17097;50.916;5.344;2023-12-14T12:23:04;9.00;99.90
30280;DHT22;17097;50.916;5.344;2023-12-14T12:25:31;8.70;99.90
30280;DHT22;17097;50.916;5.344;2023-12-14T12:28:01;8.80;99.90
30280;DHT22;17097;50.916;5.344;2023-12-14T12:30:29;9.00;99.90
30280;DHT22;17097;50.916;5.344;2023-12-14T12:32:54;9.00;99.90
30280;DHT22;17097;50.916;5.344;2023-12-14T12:35:24;9.20;99.90
30280;DHT22;17097;50.916;5.344;2023-12-14T12:37:51;9.30;99.90
30280;DHT22;17097;50.916;5.344;2023-12-14T12:40:23;9.30;99.90
30280;DHT22;17097;50.916;5.344;2023-12-14T12:42:53;9.40;99.90
30280;DHT22;17097;50.916;5.344;2023-12-14T12:45:19;9.50;99.90
30280;DHT22;17097;50.916;5.344;2023-12-14T12:47:47;9.60;99.90
30280;DHT22;17097;50.916;5.344;2023-12-14T12:50:13;9.70;99.90
30280;DHT22;17097;50.916;5.344;2023-12-14T12:52:39;9.30;99.90
30280;DHT22;17097;50.916;5.344;2023-12-14T12:55:08;9.30;99.90
30280;DHT22;17097;50.916;5.344;2023-12-14T12:57:35;9.10;99.90
30280;DHT22;17097;50.916;5.344;2023-12-14T13:00:01;9.10;99.90
30280;DHT22;17097;50.916;5.344;2023-12-14T13:02:29;8.80;99.90
30280;DHT22;17097;50.916;5.344;2023-12-14T13:04:55;8.80;99.90
30280;DHT22;17097;50.916;5.344;2023-12-14T13:07:20;9.10;99.90
30280;DHT22;17097;50.916;5.344;2023-12-14T13:09:46;9.00;99.90
30280;DHT22;17097;50.916;5.344;2023-12-14T13:12:12;9.00;99.90
30280;DHT22;17097;50.916;5.344;2023-12-14T13:14:38;9.10;99.90
30280;DHT22;17097;50.916;5.344;2023-12-14T13:17:04;9.10;99.90
30280;DHT22;17097;50.916;5.344;2023-12-14T13:19:29;9.10;99.90
30280;DHT22;17097;50.916;5.344;2023-12-14T13:21:55;9.20;99.90
30280;DHT22;17097;50.916;5.344;2023-12-14T13:24:25;9.30;99.90
30280;DHT22;17097;50.916;5.344;2023-12-14T13:26:50;9.20;99.90
30280;DHT22;17097;50.916;5.344;2023-12-14T13:29:16;9.20;99.90
30280;DHT22;17097;50.916;5.344;2023-12-14T13:31:44;9.30;99.90
30280;DHT22;17097;50.916;5.344;2023-12-14T13:34:12;9.30;99.90
30280;DHT22;17097;50.916;5.344;2023-12-14T13:36:38;9.10;99.90
30280;DHT22;17097;50.916;5.344;2023-12-14T13:39:03;9.10;99.90
30280;DHT22;17097;50.916;5.344;2023-12-14T13:41:29;9.00;99.90
30280;DHT22;17097;50.916;5.344;2023-12-14T13:43:59;9.00;99.90
30280;DHT22;17097;50.916;5.344;2023-12-14T13:46:25;8.80;99.90
30280;DHT22;17097;50.916;5.344;2023-12-14T13:48:50;8.90;99.90
30280;DHT22;17097;50.916;5.344;2023-12-14T13:51:18;9.00;99.90
30280;DHT22;17097;50.916;5.344;2023-12-14T13:53:46;8.80;99.90
30280;DHT22;17097;50.916;5.344;2023-12-14T13:56:16;8.90;99.90
30280;DHT22;17097;50.916;5.344;2023-12-14T13:58:45;9.00;99.90
30280;DHT22;17097;50.916;5.344;2023-12-14T14:01:10;8.80;99.90
30280;DHT22;17097;50.916;5.344;2023-12-14T14:03:36;8.80;99.90
30280;DHT22;17097;50.916;5.344;2023-12-14T14:06:05;8.90;99.90
30280;DHT22;17097;50.916;5.344;2023-12-14T14:08:32;9.00;99.90
30280;DHT22;17097;50.916;5.344;2023-12-14T14:10:58;9.00;99.90
30280;DHT22;17097;50.916;5.344;2023-12-14T14:13:28;9.20;99.90
30280;DHT22;17097;50.916;5.344;2023-12-14T14:15:54;9.30;99.90
30280;DHT22;17097;50.916;5.344;2023-12-14T14:18:20;9.30;99.90
30280;DHT22;17097;50.916;5.344;2023-12-14T14:20:46;9.40;99.90
30280;DHT22;17097;50.916;5.344;2023-12-14T14:23:11;9.30;99.90
30280;DHT22;17097;50.916;5.344;2023-12-14T14:25:39;9.20;99.90
30280;DHT22;17097;50.916;5.344;2023-12-14T14:28:06;9.20;99.90
30280;DHT22;17097;50.916;5.344;2023-12-14T14:30:31;9.20;99.90
30280;DHT22;17097;50.916;5.344;2023-12-14T14:32:57;9.30;99.90
30280;DHT22;17097;50.916;5.344;2023-12-14T14:35:25;9.00;99.90
30280;DHT22;17097;50.916;5.344;2023-12-14T14:37:51;9.10;99.90
30280;DHT22;17097;50.916;5.344;2023-12-14T14:40:19;9.10;99.90
30280;DHT22;17097;50.916;5.344;2023-12-14T14:42:44;9.30;99.90
30280;DHT22;17097;50.916;5.344;2023-12-14T14:45:11;9.20;99.90
30280;DHT22;17097;50.916;5.344;2023-12-14T14:47:37;9.10;99.90
30280;DHT22;17097;50.916;5.344;2023-12-14T14:50:11;9.00;99.90
30280;DHT22;17097;50.916;5.344;2023-12-14T14:52:36;9.10;99.90
30280;DHT22;17097;50.916;5.344;2023-12-14T14:55:02;9.10;99.90
30280;DHT22;17097;50.916;5.344;2023-12-14T14:57:28;9.60;99.90
30280;DHT22;17097;50.916;5.344;2023-12-14T14:59:54;9.70;99.90
30280;DHT22;17097;50.916;5.344;2023-12-14T15:02:19;9.70;99.90
30280;DHT22;17097;50.916;5.344;2023-12-14T15:04:49;9.70;99.90
30280;DHT22;17097;50.916;5.344;2023-12-14T15:07:15;9.60;99.90
30280;DHT22;17097;50.916;5.344;2023-12-14T15:09:43;9.70;99.90
30280;DHT22;17097;50.916;5.344;2023-12-14T15:12:09;9.80;99.90
30280;DHT22;17097;50.916;5.344;2023-12-14T15:14:35;10.00;99.90
30280;DHT22;17097;50.916;5.344;2023-12-14T15:17:03;9.90;99.90
30280;DHT22;17097;50.916;5.344;2023-12-14T15:19:31;9.70;99.90
30280;DHT22;17097;50.916;5.344;2023-12-14T15:21:56;9.60;99.90
30280;DHT22;17097;50.916;5.344;2023-12-14T15:24:22;9.50;99.90
30280;DHT22;17097;50.916;5.344;2023-12-14T15:26:48;9.50;99.90
30280;DHT22;17097;50.916;5.344;2023-12-14T15:29:14;9.60;99.90
30280;DHT22;17097;50.916;5.344;2023-12-14T15:31:42;9.60;99.90
30280;DHT22;17097;50.916;5.344;2023-12-14T15:34:08;9.60;99.90
30280;DHT22;17097;50.916;5.344;2023-12-14T15:36:34;9.60;99.90
30280;DHT22;17097;50.916;5.344;2023-12-14T15:39:00;9.50;99.90
30280;DHT22;17097;50.916;5.344;2023-12-14T15:41:26;9.50;99.90
30280;DHT22;17097;50.916;5.344;2023-12-14T15:43:52;9.50;99.90
30280;DHT22;17097;50.916;5.344;2023-12-14T15:46:18;9.50;99.90
30280;DHT22;17097;50.916;5.344;2023-12-14T15:48:43;9.50;99.90